createdAt,value
2019-05-21T00:01:07.266Z,96399.68
2019-05-21T00:03:08.881Z,96402.23
2019-05-21T00:05:10.498Z,96403.58
2019-05-21T00:07:12.137Z,96408.30
2019-05-21T00:09:13.738Z,96420.70
2019-05-21T00:11:15.392Z,96416.86
2019-05-21T00:13:16.990Z,96424.56
2019-05-21T00:15:18.590Z,96418.23
2019-05-21T00:17:20.221Z,96425.93
2019-05-21T00:19:21.816Z,96423.91
2019-05-21T00:21:23.414Z,96423.50
2019-05-21T00:23:25.000Z,96408.73
2019-05-21T00:25:26.598Z,96424.72
2019-05-21T00:27:28.224Z,96425.13
2019-05-21T00:29:29.831Z,96429.67
2019-05-21T00:31:31.423Z,96424.12
2019-05-21T00:33:33.018Z,96423.91
2019-05-21T00:35:40.222Z,96390.55
2019-05-21T00:37:41.818Z,96428.34
2019-05-21T00:39:43.451Z,96429.77
2019-05-21T00:41:45.050Z,96389.58
2019-05-21T00:43:46.662Z,96435.59
2019-05-21T00:45:48.265Z,96441.66
2019-05-21T00:47:49.866Z,96439.61
2019-05-21T00:49:51.468Z,96443.50
2019-05-21T00:52:06.484Z,96437.85
2019-05-21T00:53:54.752Z,96433.60
2019-05-21T00:55:56.383Z,96440.44
2019-05-21T00:57:57.973Z,96431.17
2019-05-21T00:59:59.580Z,96435.03
2019-05-21T01:02:01.210Z,96431.70
2019-05-21T01:04:02.811Z,96435.09
2019-05-21T01:06:04.443Z,96439.01
2019-05-21T01:08:06.030Z,96438.78
2019-05-21T01:10:07.635Z,96442.84
2019-05-21T01:12:09.250Z,96393.02
2019-05-21T01:14:10.885Z,96439.37
2019-05-21T01:16:12.482Z,96417.33
2019-05-21T01:18:14.168Z,96412.84
2019-05-21T01:20:15.786Z,96431.61
2019-05-21T01:22:17.390Z,96437.67
2019-05-21T01:24:18.995Z,96432.20
2019-05-21T01:26:20.602Z,96436.55
2019-05-21T01:28:22.235Z,96430.28
2019-05-21T01:32:41.800Z,96443.23
2019-05-21T01:34:43.407Z,96447.60
2019-05-21T01:36:45.006Z,96440.83
2019-05-21T01:38:46.643Z,96449.09
2019-05-21T01:40:48.238Z,96452.44
2019-05-21T01:42:49.849Z,96452.05
2019-05-21T01:44:51.480Z,96448.34
2019-05-21T01:46:53.081Z,96449.14
2019-05-21T01:48:54.719Z,96448.76
2019-05-21T01:50:56.324Z,96450.88
2019-05-21T01:52:57.948Z,96453.55
2019-05-21T01:54:59.560Z,96448.11
2019-05-21T01:57:01.158Z,96447.24
2019-05-21T01:59:02.791Z,96451.08
2019-05-21T02:01:04.441Z,96449.05
2019-05-21T02:03:06.059Z,96447.30
2019-05-21T02:05:07.658Z,96450.98
2019-05-21T02:07:09.284Z,96447.98
2019-05-21T02:09:10.981Z,96445.31
2019-05-21T02:11:12.610Z,96450.34
2019-05-21T02:13:14.227Z,96446.44
2019-05-21T02:15:15.821Z,96450.55
2019-05-21T02:17:17.422Z,96453.73
2019-05-21T02:19:19.022Z,96461.55
2019-05-21T02:21:20.662Z,96455.47
2019-05-21T02:23:22.267Z,96455.00
2019-05-21T02:25:23.922Z,96461.23
2019-05-21T02:27:25.531Z,96458.70
2019-05-21T02:29:27.117Z,96455.59
2019-05-21T02:31:28.729Z,96445.84
2019-05-21T02:33:30.325Z,96449.36
2019-05-21T02:35:31.969Z,96450.61
2019-05-21T02:37:33.566Z,96450.77
2019-05-21T02:39:35.173Z,96447.29
2019-05-21T02:41:36.821Z,96453.33
2019-05-21T02:43:38.448Z,96448.22
2019-05-21T02:45:40.091Z,96449.00
2019-05-21T02:47:42.304Z,96449.86
2019-05-21T02:49:43.899Z,96458.71
2019-05-21T02:51:45.514Z,96455.95
2019-05-21T02:53:47.163Z,96451.89
2019-05-21T02:55:48.762Z,96456.44
2019-05-21T02:57:50.368Z,96456.80
2019-05-21T02:59:51.985Z,96460.70
2019-05-21T03:01:54.071Z,96458.14
2019-05-21T03:03:55.690Z,96462.72
2019-05-21T03:06:12.398Z,96466.20
2019-05-21T03:07:58.960Z,96470.64
2019-05-21T03:10:00.584Z,96466.60
2019-05-21T03:12:02.191Z,96465.06
2019-05-21T03:14:03.831Z,96471.19
2019-05-21T03:16:05.437Z,96467.62
2019-05-21T03:18:07.035Z,96469.02
2019-05-21T03:20:08.641Z,96469.98
2019-05-21T03:22:10.246Z,96472.15
2019-05-21T03:24:11.858Z,96471.83
2019-05-21T03:26:13.500Z,96474.02
2019-05-21T03:28:15.101Z,96477.20
2019-05-21T03:30:16.688Z,96478.54
2019-05-21T03:32:18.453Z,96479.64
2019-05-21T03:34:20.077Z,96459.94
2019-05-21T03:36:32.894Z,96477.53
2019-05-21T03:38:23.277Z,96475.45
2019-05-21T03:40:24.882Z,96471.61
2019-05-21T03:42:26.474Z,96474.11
2019-05-21T03:44:28.072Z,96483.77
2019-05-21T03:46:29.681Z,96483.23
2019-05-21T03:48:31.304Z,96488.73
2019-05-21T03:50:32.907Z,96490.28
2019-05-21T03:52:34.557Z,96492.75
2019-05-21T03:54:36.176Z,96498.12
2019-05-21T03:56:37.818Z,96496.34
2019-05-21T03:58:39.428Z,96502.11
2019-05-21T04:00:41.066Z,96500.39
2019-05-21T04:02:42.709Z,96499.88
2019-05-21T04:04:44.324Z,96497.77
2019-05-21T04:06:51.866Z,96492.19
2019-05-21T04:08:47.612Z,96488.64
2019-05-21T04:10:49.216Z,96481.00
2019-05-21T04:12:56.568Z,96483.02
2019-05-21T04:14:59.926Z,96491.08
2019-05-21T04:17:22.472Z,96493.63
2019-05-21T04:19:38.950Z,96496.64
2019-05-21T04:21:40.587Z,96495.45
2019-05-21T04:23:42.300Z,96486.47
2019-05-21T04:25:43.926Z,96487.24
2019-05-21T04:27:45.541Z,96493.96
2019-05-21T04:29:47.186Z,96493.78
2019-05-21T04:31:48.800Z,96497.44
2019-05-21T04:33:50.408Z,96500.64
2019-05-21T04:35:52.019Z,96510.59
2019-05-21T04:37:53.637Z,96510.89
2019-05-21T04:39:55.245Z,96516.66
2019-05-21T04:41:56.842Z,96523.34
2019-05-21T04:43:58.462Z,96516.53
2019-05-21T04:46:00.075Z,96514.27
2019-05-21T04:48:01.679Z,96510.82
2019-05-21T04:50:03.325Z,96502.73
2019-05-21T04:52:04.935Z,96505.19
2019-05-21T04:54:06.529Z,96510.34
2019-05-21T04:56:08.176Z,96508.70
2019-05-21T04:58:09.799Z,96505.73
2019-05-21T05:00:11.474Z,96507.43
2019-05-21T05:02:13.076Z,96507.05
2019-05-21T05:04:14.701Z,96511.33
2019-05-21T05:06:16.324Z,96506.27
2019-05-21T05:08:17.937Z,96511.42
2019-05-21T05:10:19.574Z,96510.11
2019-05-21T05:12:21.188Z,96507.91
2019-05-21T05:14:22.808Z,96502.64
2019-05-21T05:16:24.439Z,96500.05
2019-05-21T05:18:26.031Z,96508.58
2019-05-21T05:20:27.616Z,96509.77
2019-05-21T05:22:29.200Z,96511.41
2019-05-21T05:24:30.815Z,96513.04
2019-05-21T05:26:32.545Z,96502.77
2019-05-21T05:28:34.129Z,96502.30
2019-05-21T05:30:35.739Z,96501.38
2019-05-21T05:32:37.329Z,96499.64
2019-05-21T05:34:38.931Z,96506.02
2019-05-21T05:36:40.566Z,96508.59
2019-05-21T05:38:43.109Z,96511.98
2019-05-21T05:40:44.732Z,96509.41
2019-05-21T05:42:46.320Z,96515.28
2019-05-21T05:44:47.918Z,96526.36
2019-05-21T05:46:49.562Z,96522.01
2019-05-21T05:48:51.214Z,96523.20
2019-05-21T05:50:55.339Z,96527.90
2019-05-21T05:52:56.940Z,96528.25
2019-05-21T05:54:58.543Z,96521.79
2019-05-21T05:57:00.144Z,96524.77
2019-05-21T05:59:01.780Z,96526.05
2019-05-21T06:01:03.424Z,96514.85
2019-05-21T06:03:05.066Z,96527.23
2019-05-21T06:05:06.666Z,96481.14
2019-05-21T06:07:08.538Z,96529.34
2019-05-21T06:09:10.155Z,96526.66
2019-05-21T06:11:11.759Z,96525.29
2019-05-21T06:13:13.376Z,96524.42
2019-05-21T06:15:15.000Z,96532.84
2019-05-21T06:17:16.615Z,96534.09
2019-05-21T06:19:18.248Z,96526.86
2019-05-21T06:21:19.840Z,96529.90
2019-05-21T06:23:21.498Z,96527.34
2019-05-21T06:25:23.132Z,96527.78
2019-05-21T06:27:24.748Z,96527.69
2019-05-21T06:29:26.367Z,96533.55
2019-05-21T06:31:27.981Z,96529.97
2019-05-21T06:33:29.586Z,96535.50
2019-05-21T06:35:31.216Z,96535.91
2019-05-21T06:37:32.882Z,96548.54
2019-05-21T06:39:34.464Z,96545.89
2019-05-21T06:41:36.076Z,96549.23
2019-05-21T06:43:37.690Z,96548.37
2019-05-21T06:45:39.317Z,96555.63
2019-05-21T06:47:40.904Z,96552.98
2019-05-21T06:49:42.524Z,96554.63
2019-05-21T06:51:44.122Z,96558.05
2019-05-21T06:53:45.727Z,96558.88
2019-05-21T06:55:47.377Z,96566.88
2019-05-21T06:57:48.969Z,96569.41
2019-05-21T06:59:50.567Z,96573.96
2019-05-21T07:01:52.169Z,96578.72
2019-05-21T07:03:53.776Z,96580.84
2019-05-21T07:05:58.647Z,96586.22
2019-05-21T07:07:57.053Z,96588.95
2019-05-21T07:09:58.656Z,96591.09
2019-05-21T07:12:00.254Z,96590.23
2019-05-21T07:14:01.882Z,96585.33
2019-05-21T07:16:03.477Z,96591.08
2019-05-21T07:18:05.114Z,96587.77
2019-05-21T07:20:06.709Z,96589.77
2019-05-21T07:22:12.600Z,96591.02
2019-05-21T07:24:09.972Z,96593.00
2019-05-21T07:26:11.659Z,96585.11
2019-05-21T07:28:13.244Z,96586.48
2019-05-21T07:30:14.832Z,96591.92
2019-05-21T07:32:16.473Z,96588.00
2019-05-21T07:34:18.079Z,96588.41
2019-05-21T07:36:19.704Z,96592.28
2019-05-21T07:38:21.343Z,96591.09
2019-05-21T07:40:22.957Z,96587.41
2019-05-21T07:42:24.558Z,96587.02
2019-05-21T07:44:26.154Z,96587.11
2019-05-21T07:46:27.751Z,96585.80
2019-05-21T07:48:29.386Z,96588.81
2019-05-21T07:50:30.982Z,96593.92
2019-05-21T07:52:32.582Z,96588.78
2019-05-21T07:54:34.171Z,96590.80
2019-05-21T07:56:35.827Z,96595.98
2019-05-21T07:58:37.492Z,96595.89
2019-05-21T08:00:39.159Z,96599.97
2019-05-21T08:02:40.824Z,96596.31
2019-05-21T08:04:42.432Z,96595.45
2019-05-21T08:06:44.260Z,96593.41
2019-05-21T08:08:45.797Z,96593.31
2019-05-21T08:10:47.384Z,96594.77
2019-05-21T08:12:49.021Z,96600.13
2019-05-21T08:14:50.700Z,96600.28
2019-05-21T08:16:52.309Z,96610.09
2019-05-21T08:18:53.949Z,96605.91
2019-05-21T08:20:55.554Z,96609.32
2019-05-21T08:22:57.140Z,96610.63
2019-05-21T08:24:58.749Z,96613.31
2019-05-21T08:27:00.374Z,96615.57
2019-05-21T08:29:01.978Z,96618.39
2019-05-21T08:31:03.648Z,96609.59
2019-05-21T08:33:05.257Z,96613.19
2019-05-21T08:35:06.894Z,96613.19
2019-05-21T08:37:08.572Z,96608.57
2019-05-21T08:39:10.174Z,96621.39
2019-05-21T08:41:11.815Z,96619.55
2019-05-21T08:43:13.503Z,96625.69
2019-05-21T08:45:15.291Z,96621.42
2019-05-21T08:47:16.888Z,96623.66
2019-05-21T08:49:18.482Z,96621.12
2019-05-21T08:51:20.188Z,96619.25
2019-05-21T08:53:21.793Z,96619.25
2019-05-21T08:55:23.467Z,96615.59
2019-05-21T08:57:25.066Z,96622.76
2019-05-21T08:59:26.667Z,96618.29
2019-05-21T09:01:28.282Z,96618.05
2019-05-21T09:03:29.897Z,96629.50
2019-05-21T09:05:31.498Z,96624.56
2019-05-21T09:07:33.090Z,96627.14
2019-05-21T09:09:49.430Z,96626.78
2019-05-21T09:11:36.352Z,96629.81
2019-05-21T09:13:37.942Z,96629.75
2019-05-21T09:15:39.547Z,96624.76
2019-05-21T09:17:41.161Z,96623.98
2019-05-21T09:19:42.800Z,96632.40
2019-05-21T09:21:44.456Z,96624.28
2019-05-21T09:23:46.040Z,96627.29
2019-05-21T09:25:49.585Z,96629.28
2019-05-21T09:27:49.356Z,96628.89
2019-05-21T09:29:50.960Z,96632.82
2019-05-21T09:31:52.591Z,96630.41
2019-05-21T09:33:54.209Z,96634.63
2019-05-21T09:35:55.809Z,96632.52
2019-05-21T09:37:57.453Z,96634.80
2019-05-21T09:39:59.047Z,96634.36
2019-05-21T09:42:00.652Z,96639.11
2019-05-21T09:44:02.259Z,96644.58
2019-05-21T09:46:03.872Z,96636.94
2019-05-21T09:48:05.644Z,96642.38
2019-05-21T09:50:07.455Z,96640.24
2019-05-21T09:52:09.054Z,96638.25
2019-05-21T09:54:10.655Z,96641.11
2019-05-21T09:56:17.934Z,96642.24
2019-05-21T09:58:22.305Z,96622.25
2019-05-21T10:00:29.699Z,96646.34
2019-05-21T10:02:31.285Z,96648.06
2019-05-21T10:04:32.942Z,96646.58
2019-05-21T10:06:34.592Z,96642.56
2019-05-21T10:08:37.289Z,96647.23
2019-05-21T10:10:37.870Z,96651.94
2019-05-21T10:12:39.466Z,96658.72
2019-05-21T10:14:41.120Z,96650.06
2019-05-21T10:16:42.716Z,96647.87
2019-05-21T10:18:44.317Z,96644.53
2019-05-21T10:20:46.019Z,96648.07
2019-05-21T10:22:47.624Z,96647.53
2019-05-21T10:24:49.236Z,96655.44
2019-05-21T10:26:50.840Z,96653.46
2019-05-21T10:28:52.920Z,96652.00
2019-05-21T10:30:54.579Z,96651.72
2019-05-21T10:32:56.754Z,96653.98
2019-05-21T10:34:58.366Z,96660.90
2019-05-21T10:37:00.025Z,96657.23
2019-05-21T10:39:01.662Z,96661.98
2019-05-21T10:41:04.506Z,96662.48
2019-05-21T10:43:06.968Z,96667.60
2019-05-21T10:45:08.604Z,96665.16
2019-05-21T10:47:10.232Z,96659.59
2019-05-21T10:49:11.849Z,96665.18
2019-05-21T10:51:13.501Z,96658.32
2019-05-21T10:53:15.127Z,96660.09
2019-05-21T10:55:17.719Z,96664.81
2019-05-21T10:57:18.520Z,96663.52
2019-05-21T10:59:20.127Z,96661.16
2019-05-21T11:01:21.783Z,96672.09
2019-05-21T11:03:28.043Z,96676.16
2019-05-21T11:05:29.695Z,96668.45
2019-05-21T11:07:31.381Z,96676.41
2019-05-21T11:09:33.001Z,96669.51
2019-05-21T11:11:34.602Z,96674.70
2019-05-21T11:13:36.313Z,96667.59
2019-05-21T11:15:37.955Z,96649.45
2019-05-21T11:17:50.079Z,96665.27
2019-05-21T11:19:41.190Z,96662.37
2019-05-21T11:21:42.797Z,96665.05
2019-05-21T11:23:44.467Z,96672.71
2019-05-21T11:25:46.424Z,96673.13
2019-05-21T11:27:48.061Z,96672.27
2019-05-21T11:29:49.690Z,96671.96
2019-05-21T11:31:56.985Z,96671.59
2019-05-21T11:33:53.060Z,96673.38
2019-05-21T11:35:54.680Z,96674.16
2019-05-21T11:37:56.304Z,96669.48
2019-05-21T11:39:57.918Z,96673.77
2019-05-21T11:41:59.504Z,96662.23
2019-05-21T11:44:01.124Z,96669.91
2019-05-21T11:46:03.243Z,96671.49
2019-05-21T11:48:04.364Z,96668.94
2019-05-21T11:50:05.968Z,96656.66
2019-05-21T11:52:07.626Z,96668.18
2019-05-21T11:54:09.244Z,96664.96
2019-05-21T11:56:10.853Z,96667.73
2019-05-21T11:58:12.502Z,96631.84
2019-05-21T12:00:14.092Z,96667.98
2019-05-21T12:02:15.684Z,96668.52
2019-05-21T12:04:17.293Z,96667.73
2019-05-21T12:06:18.888Z,96671.56
2019-05-21T12:08:20.500Z,96666.12
2019-05-21T12:10:22.085Z,96665.31
2019-05-21T12:12:23.695Z,96669.56
2019-05-21T12:14:25.337Z,96672.13
2019-05-21T12:16:26.952Z,96669.13
2019-05-21T12:18:28.556Z,96661.13
2019-05-21T12:20:36.731Z,96668.29
2019-05-21T12:22:31.842Z,96666.23
2019-05-21T12:24:33.468Z,96663.27
2019-05-21T12:26:35.052Z,96665.42
2019-05-21T12:28:36.657Z,96665.20
2019-05-21T12:30:38.300Z,96671.09
2019-05-21T12:32:39.927Z,96670.65
2019-05-21T12:34:41.559Z,96671.45
2019-05-21T12:36:43.169Z,96660.87
2019-05-21T12:38:44.760Z,96671.90
2019-05-21T12:40:46.392Z,96671.17
2019-05-21T12:42:48.002Z,96675.06
2019-05-21T12:44:49.617Z,96678.14
2019-05-21T12:46:51.233Z,96672.72
2019-05-21T12:48:52.840Z,96674.84
2019-05-21T12:50:54.504Z,96668.84
2019-05-21T12:52:56.118Z,96677.23
2019-05-21T12:54:57.723Z,96680.95
2019-05-21T12:56:59.328Z,96677.45
2019-05-21T12:59:01.012Z,96679.54
2019-05-21T13:01:02.609Z,96676.06
2019-05-21T13:03:04.202Z,96678.59
2019-05-21T13:05:05.830Z,96673.04
2019-05-21T13:07:07.452Z,96675.52
2019-05-21T13:09:09.036Z,96670.41
2019-05-21T13:11:10.625Z,96677.63
2019-05-21T13:13:12.261Z,96669.34
2019-05-21T13:15:13.876Z,96671.59
2019-05-21T13:17:15.679Z,96669.34
2019-05-21T13:19:17.341Z,96671.38
2019-05-21T13:21:18.927Z,96666.66
2019-05-21T13:23:20.547Z,96670.48
2019-05-21T13:25:22.158Z,96674.31
2019-05-21T13:27:23.814Z,96671.77
2019-05-21T13:29:25.489Z,96672.67
2019-05-21T13:31:27.116Z,96678.20
2019-05-21T13:33:28.741Z,96674.84
2019-05-21T13:35:30.414Z,96677.34
2019-05-21T13:37:32.073Z,96672.23
2019-05-21T13:39:48.988Z,96675.65
2019-05-21T13:41:35.525Z,96671.88
2019-05-21T13:43:37.146Z,96682.12
2019-05-21T13:45:38.800Z,96674.90
2019-05-21T13:47:40.388Z,96676.81
2019-05-21T13:49:41.996Z,96641.55
2019-05-21T13:51:43.608Z,96683.56
2019-05-21T13:53:45.196Z,96683.12
2019-05-21T13:55:46.950Z,96681.84
2019-05-21T13:57:48.524Z,96683.67
2019-05-21T13:59:50.118Z,96686.73
2019-05-21T14:01:51.786Z,96686.49
2019-05-21T14:03:53.393Z,96687.94
2019-05-21T14:05:54.996Z,96685.56
2019-05-21T14:07:56.593Z,96690.23
2019-05-21T14:10:13.349Z,96685.59
2019-05-21T14:11:59.852Z,96689.06
2019-05-21T14:14:01.479Z,96687.89
2019-05-21T14:16:03.101Z,96681.11
2019-05-21T14:18:04.743Z,96686.66
2019-05-21T14:20:06.369Z,96688.02
2019-05-21T14:22:07.967Z,96688.47
2019-05-21T14:24:09.542Z,96672.87
2019-05-21T14:26:11.246Z,96690.30
2019-05-21T14:28:12.870Z,96691.59
2019-05-21T14:30:14.488Z,96689.96
2019-05-21T14:32:16.112Z,96688.68
2019-05-21T14:34:17.763Z,96690.45
2019-05-21T14:36:19.351Z,96687.95
2019-05-21T14:38:21.009Z,96687.25
2019-05-21T14:40:31.957Z,96689.28
2019-05-21T14:42:24.313Z,96687.66
2019-05-21T14:44:26.018Z,96690.77
2019-05-21T14:46:27.646Z,96692.44
2019-05-21T14:48:29.293Z,96689.93
2019-05-21T14:50:30.945Z,96691.70
2019-05-21T14:52:32.604Z,96687.92
2019-05-21T14:54:34.216Z,96688.89
2019-05-21T14:56:35.842Z,96688.84
2019-05-21T14:58:37.530Z,96684.53
2019-05-21T15:00:39.299Z,96683.68
2019-05-21T15:02:41.783Z,96681.62
2019-05-21T15:04:42.973Z,96674.41
2019-05-21T15:06:44.494Z,96680.81
2019-05-21T15:08:46.102Z,96682.17
2019-05-21T15:10:49.628Z,96690.72
2019-05-21T15:12:50.048Z,96682.34
2019-05-21T15:14:51.637Z,96684.41
2019-05-21T15:16:53.299Z,96691.22
2019-05-21T15:18:54.948Z,96679.77
2019-05-21T15:20:56.700Z,96688.34
2019-05-21T15:22:58.285Z,96684.10
2019-05-21T15:24:59.891Z,96684.56
2019-05-21T15:27:01.546Z,96685.52
2019-05-21T15:29:03.201Z,96691.41
2019-05-21T15:31:04.849Z,96693.13
2019-05-21T15:33:06.455Z,96694.41
2019-05-21T15:35:08.091Z,96692.32
2019-05-21T15:37:09.734Z,96695.31
2019-05-21T15:39:11.490Z,96695.73
2019-05-21T15:41:13.149Z,96687.72
2019-05-21T15:43:14.743Z,96682.22
2019-05-21T15:45:17.302Z,96684.43
2019-05-21T15:47:18.888Z,96693.28
2019-05-21T15:49:34.996Z,96695.47
2019-05-21T15:51:22.146Z,96699.75
2019-05-21T15:53:23.734Z,96702.73
2019-05-21T15:55:25.345Z,96707.02
2019-05-21T15:57:26.927Z,96704.95
2019-05-21T15:59:28.566Z,96706.67
2019-05-21T16:01:30.143Z,96703.70
2019-05-21T16:03:31.792Z,96685.04
2019-05-21T16:05:33.383Z,96702.89
2019-05-21T16:07:34.956Z,96708.91
2019-05-21T16:09:36.552Z,96709.37
2019-05-21T16:11:38.157Z,96712.78
2019-05-21T16:13:39.794Z,96717.05
2019-05-21T16:15:41.426Z,96710.00
2019-05-21T16:17:43.090Z,96720.57
2019-05-21T16:19:44.697Z,96722.32
2019-05-21T16:21:46.308Z,96729.88
2019-05-21T16:23:47.959Z,96730.90
2019-05-21T16:25:49.572Z,96735.78
2019-05-21T16:27:51.220Z,96741.42
2019-05-21T16:29:52.828Z,96743.20
2019-05-21T16:31:54.418Z,96741.95
2019-05-21T16:33:56.042Z,96750.94
2019-05-21T16:35:57.632Z,96758.33
2019-05-21T16:37:59.305Z,96755.22
2019-05-21T16:40:01.455Z,96751.31
2019-05-21T16:42:02.534Z,96759.47
2019-05-21T16:44:04.144Z,96752.35
2019-05-21T16:46:05.757Z,96759.18
2019-05-21T16:48:07.394Z,96761.34
2019-05-21T16:50:09.049Z,96759.67
2019-05-21T16:52:11.136Z,96755.09
2019-05-21T16:54:12.732Z,96753.91
2019-05-21T16:56:14.311Z,96746.36
2019-05-21T16:58:15.956Z,96737.02
2019-05-21T17:00:17.551Z,96741.25
2019-05-21T17:02:19.161Z,96731.37
2019-05-21T17:04:20.776Z,96734.70
2019-05-21T17:06:22.393Z,96733.58
2019-05-21T17:08:24.157Z,96735.02
2019-05-21T17:10:25.841Z,96731.36
2019-05-21T17:12:27.498Z,96726.11
2019-05-21T17:14:29.356Z,96727.52
2019-05-21T17:16:31.127Z,96734.46
2019-05-21T17:18:32.925Z,96744.85
2019-05-21T17:20:34.642Z,96747.94
2019-05-21T17:22:36.165Z,96741.58
2019-05-21T17:24:37.775Z,96746.34
2019-05-21T17:26:42.794Z,96745.42
2019-05-21T17:28:41.044Z,96747.17
2019-05-21T17:30:42.743Z,96750.48
2019-05-21T17:32:44.332Z,96751.81
2019-05-21T17:34:45.978Z,96756.91
2019-05-21T17:36:47.598Z,96758.25
2019-05-21T17:38:49.215Z,96751.70
2019-05-21T17:40:50.840Z,96750.77
2019-05-21T17:42:52.438Z,96753.02
2019-05-21T17:44:54.083Z,96748.07
2019-05-21T17:46:55.736Z,96747.23
2019-05-21T17:48:57.411Z,96747.66
2019-05-21T17:50:59.720Z,96740.73
2019-05-21T17:53:01.371Z,96751.82
2019-05-21T17:55:03.022Z,96748.07
2019-05-21T17:57:04.608Z,96729.45
2019-05-21T17:59:06.216Z,96747.48
2019-05-21T18:01:07.871Z,96755.09
2019-05-21T18:03:09.494Z,96758.18
2019-05-21T18:05:11.127Z,96758.94
2019-05-21T18:07:12.743Z,96752.30
2019-05-21T18:09:14.328Z,96753.49
2019-05-21T18:11:16.158Z,96760.81
2019-05-21T18:13:17.769Z,96760.47
2019-05-21T18:15:19.366Z,96757.36
2019-05-21T18:17:20.949Z,96766.88
2019-05-21T18:19:22.565Z,96763.45
2019-05-21T18:21:24.208Z,96764.78
2019-05-21T18:23:25.800Z,96769.18
2019-05-21T18:25:27.420Z,96770.73
2019-05-21T18:27:29.003Z,96768.30
2019-05-21T18:29:30.688Z,96768.20
2019-05-21T18:31:32.356Z,96770.92
2019-05-21T18:33:33.961Z,96776.31
2019-05-21T18:35:35.543Z,96770.30
2019-05-21T18:37:37.161Z,96779.81
2019-05-21T18:39:38.789Z,96782.25
2019-05-21T18:41:41.081Z,96780.38
2019-05-21T18:43:42.695Z,96783.23
2019-05-21T18:45:44.303Z,96787.67
2019-05-21T18:47:45.892Z,96789.47
2019-05-21T18:49:47.501Z,96792.80
2019-05-21T18:51:49.092Z,96799.83
2019-05-21T18:53:50.702Z,96799.11
2019-05-21T18:55:52.285Z,96800.30
2019-05-21T18:57:53.883Z,96807.03
2019-05-21T18:59:55.484Z,96808.37
2019-05-21T19:01:57.076Z,96809.59
2019-05-21T19:03:58.705Z,96810.88
2019-05-21T19:06:00.311Z,96808.97
2019-05-21T19:08:02.904Z,96808.69
2019-05-21T19:10:04.496Z,96810.62
2019-05-21T19:12:06.118Z,96813.17
2019-05-21T19:14:07.731Z,96813.78
2019-05-21T19:16:09.392Z,96814.41
2019-05-21T19:18:11.003Z,96821.85
2019-05-21T19:20:12.631Z,96821.06
2019-05-21T19:22:14.269Z,96823.22
2019-05-21T19:24:15.985Z,96821.61
2019-05-21T19:26:17.659Z,96819.38
2019-05-21T19:28:19.262Z,96822.33
2019-05-21T19:30:20.923Z,96828.63
2019-05-21T19:32:22.536Z,96825.50
2019-05-21T19:34:24.123Z,96834.20
2019-05-21T19:36:25.824Z,96835.41
2019-05-21T19:38:27.446Z,96844.44
2019-05-21T19:40:29.093Z,96862.89
2019-05-21T19:42:30.744Z,96876.33
2019-05-21T19:44:32.324Z,96887.91
2019-05-21T19:46:33.952Z,96880.12
2019-05-21T19:48:35.541Z,96895.76
2019-05-21T19:50:37.146Z,96897.58
2019-05-21T19:52:38.718Z,96902.84
2019-05-21T19:54:40.360Z,96894.67
2019-05-21T19:56:41.984Z,96892.84
2019-05-21T19:58:43.636Z,96896.38
2019-05-21T20:01:00.194Z,96906.20
2019-05-21T20:03:01.792Z,96901.73
2019-05-21T20:05:03.412Z,96907.95
2019-05-21T20:07:05.058Z,96908.83
2019-05-21T20:09:06.730Z,96901.15
2019-05-21T20:11:08.340Z,96906.66
2019-05-21T20:13:10.076Z,96901.36
2019-05-21T20:15:11.654Z,96903.98
2019-05-21T20:17:13.460Z,96913.95
2019-05-21T20:19:15.203Z,96907.37
2019-05-21T20:21:16.787Z,96910.19
2019-05-21T20:23:18.415Z,96908.84
2019-05-21T20:25:20.029Z,96904.58
2019-05-21T20:27:21.636Z,96903.11
2019-05-21T20:29:23.203Z,96911.40
2019-05-21T20:31:24.781Z,96903.48
2019-05-21T20:33:26.429Z,96911.42
2019-05-21T20:35:28.014Z,96905.50
2019-05-21T20:37:30.321Z,96906.38
2019-05-21T20:39:31.894Z,96908.34
2019-05-21T20:41:33.480Z,96906.79
2019-05-21T20:43:35.320Z,96910.59
2019-05-21T20:45:36.965Z,96882.80
2019-05-21T20:47:38.556Z,96914.47
2019-05-21T20:49:40.188Z,96907.11
2019-05-21T20:51:41.773Z,96915.27
2019-05-21T20:53:43.360Z,96918.15
2019-05-21T20:55:44.982Z,96917.17
2019-05-21T20:57:46.592Z,96916.25
2019-05-21T20:59:48.220Z,96918.87
2019-05-21T21:01:49.807Z,96915.38
2019-05-21T21:03:51.395Z,96918.75
2019-05-21T21:05:53.037Z,96902.88
2019-05-21T21:07:54.656Z,96905.52
2019-05-21T21:09:56.327Z,96910.05
2019-05-21T21:11:57.948Z,96908.35
2019-05-21T21:14:15.307Z,96897.33
2019-05-21T21:16:01.244Z,96906.48
2019-05-21T21:18:03.327Z,96914.61
2019-05-21T21:20:04.975Z,96907.67
2019-05-21T21:22:06.564Z,96906.80
2019-05-21T21:24:08.173Z,96906.89
2019-05-21T21:26:09.814Z,96910.32
2019-05-21T21:28:11.425Z,96905.22
2019-05-21T21:30:13.208Z,96910.34
2019-05-21T21:32:14.807Z,96906.27
2019-05-21T21:34:16.397Z,96909.19
2019-05-21T21:36:18.040Z,96912.24
2019-05-21T21:38:21.488Z,96914.99
2019-05-21T21:40:23.151Z,96916.41
2019-05-21T21:42:24.755Z,96913.52
2019-05-21T21:44:33.939Z,96922.76
2019-05-21T21:46:28.065Z,96920.34
2019-05-21T21:48:29.660Z,96920.48
2019-05-21T21:50:31.469Z,96919.42
2019-05-21T21:52:33.084Z,96925.12
2019-05-21T21:54:34.676Z,96927.36
2019-05-21T21:56:36.313Z,96929.20
2019-05-21T21:58:37.896Z,96928.03
2019-05-21T22:00:39.488Z,96927.33
2019-05-21T22:02:41.072Z,96928.30
2019-05-21T22:04:42.660Z,96883.56
2019-05-21T22:06:44.296Z,96918.83
2019-05-21T22:08:45.885Z,96926.17
2019-05-21T22:10:47.487Z,96915.57
2019-05-21T22:12:49.079Z,96912.70
2019-05-21T22:14:52.391Z,96908.97
2019-05-21T22:16:52.327Z,96905.22
2019-05-21T22:18:53.940Z,96915.92
2019-05-21T22:20:55.544Z,96916.05
2019-05-21T22:22:57.132Z,96925.06
2019-05-21T22:24:58.722Z,96925.14
2019-05-21T22:27:00.344Z,96928.25
2019-05-21T22:29:01.990Z,96925.35
2019-05-21T22:31:03.566Z,96925.02
2019-05-21T22:33:05.192Z,96928.48
2019-05-21T22:35:06.788Z,96936.32
2019-05-21T22:37:08.372Z,96935.64
2019-05-21T22:39:10.707Z,96935.20
2019-05-21T22:41:12.305Z,96941.17
2019-05-21T22:43:13.930Z,96941.27
2019-05-21T22:45:15.538Z,96933.29
2019-05-21T22:47:17.126Z,96936.29
2019-05-21T22:49:18.768Z,96937.16
2019-05-21T22:51:20.375Z,96939.37
2019-05-21T22:53:22.139Z,96932.61
2019-05-21T22:55:23.747Z,96942.91
2019-05-21T22:57:26.265Z,96933.55
2019-05-21T22:59:27.044Z,96941.72
2019-05-21T23:01:28.628Z,96947.22
2019-05-21T23:03:30.252Z,96935.77
2019-05-21T23:05:31.840Z,96929.81
2019-05-21T23:07:33.428Z,96931.09
2019-05-21T23:09:35.056Z,96934.91
2019-05-21T23:11:36.642Z,96928.02
2019-05-21T23:13:38.251Z,96928.45
2019-05-21T23:15:39.860Z,96926.38
2019-05-21T23:17:41.476Z,96921.26
2019-05-21T23:19:43.095Z,96913.97
2019-05-21T23:21:44.677Z,96916.17
2019-05-21T23:23:46.324Z,96914.37
2019-05-21T23:25:47.961Z,96912.67
2019-05-21T23:27:49.572Z,96911.79
2019-05-21T23:29:51.220Z,96913.20
2019-05-21T23:31:52.818Z,96921.05
2019-05-21T23:33:54.432Z,96922.64
2019-05-21T23:35:56.056Z,96922.48
2019-05-21T23:37:57.714Z,96916.90
2019-05-21T23:39:59.361Z,96917.38
2019-05-21T23:42:01.016Z,96920.09
2019-05-21T23:44:02.603Z,96925.09
2019-05-21T23:46:04.240Z,96934.07
2019-05-21T23:48:05.856Z,96930.66
2019-05-21T23:50:07.732Z,96929.45
2019-05-21T23:52:09.340Z,96926.45